Farmingdale, NY

12:16 AM EDT on April 27, 2017 (GMT -0400)
Republic

Weather History for KFRG - March, 2014

Change the Weather History Date:

Sunday, March 30, 2014

  Actual Average Record
Temperature  
Mean Temperature 47 °F -  
Max Temperature 57 °F 51 °F 73 °F (1998)
Min Temperature 39 °F 36 °F 26 °F (2008)
Degree Days  
Heating Degree Days 18    
Moisture  
Dew Point 45 °F    
Average Humidity 97    
Maximum Humidity 100    
Minimum Humidity 87    
Precipitation  
Precipitation 0.89 in - - ()
Sea Level Pressure  
Sea Level Pressure 29.54 in    
Wind  
Wind Speed 14 mph (NE)    
Max Wind Speed 26 mph    
Max Gust Speed 36 mph    
Visibility 3 miles    
Events Fog , Rain , Thunderstorm    
Averages and records for this station are not official NWS values.
T = Trace of Precipitation, MM = Missing Value Source: NWS Daily Summary

Daily Weather History Graph

Daily Weather History Graph

Search for Another Location

Airport or City:

Trip Planner

Search our weather history database for the weather conditions in past years. The results will help you decide how hot, cold, wet, or windy it might be!

Date:

Astronomy

Mar. 30, 2014 Rise Set
Actual Time 6:40 AM EDT 7:16 PM EDT
Civil Twilight 6:12 AM EDT 7:43 PM EDT
Nautical Twilight 5:40 AM EDT 8:16 PM EDT
Astronomical Twilight 5:07 AM EDT 8:50 PM EDT
Moon 6:24 AM EDT (3/30) 7:26 PM EDT (3/30)
Length of Visible Light 13h 30m
Length of Day
12h 35m
Waning Crescent, 0% of the Moon is Illuminated
Mar 30
Waning Crescent
Mar 30
New
Apr 7
First Quarter
Apr 15
Full
Apr 22
Last Quarter

Hourly Weather History & Observations

Time (EDT) Temp. Windchill Dew Point Humidity Pressure Visibility Wind Dir Wind Speed Gust Speed Precip Events Conditions
12:03 AM 44.6 °F 39.7 °F 44.6 °F 100% 29.70 in 1.8 mi NE 9.2 mph - 0.08 in Rain Heavy Rain
12:14 AM 46.4 °F 40.7 °F 44.6 °F 93% 29.68 in 2.0 mi NE 12.7 mph 19.6 mph 0.15 in Rain Heavy Rain
12:37 AM 51.8 °F - 50.0 °F 94% 29.66 in 4.0 mi SE 12.7 mph 24.2 mph 0.30 in Rain Light Rain
12:53 AM 52.0 °F - 51.1 °F 97% 29.65 in 5.0 mi SE 17.3 mph 24.2 mph 0.34 in Rain Rain
1:06 AM 53.6 °F - 53.6 °F 100% 29.62 in 1.8 mi SSE 21.9 mph 31.1 mph 0.13 in Rain Heavy Rain
1:15 AM 55.4 °F - 55.4 °F 100% 29.62 in 3.0 mi SE 26.5 mph 35.7 mph 0.15 in Rain Rain
1:39 AM 53.6 °F - 53.6 °F 100% 29.60 in 2.5 mi SSE 24.2 mph 29.9 mph 0.24 in Rain Rain
1:53 AM 52.0 °F - 52.0 °F 100% 29.61 in 4.0 mi SSE 21.9 mph 33.4 mph 0.25 in Rain Rain
2:53 AM 51.1 °F - 51.1 °F 100% 29.60 in 4.0 mi SSW 6.9 mph - 0.03 in   Overcast
3:25 AM 51.8 °F - 51.8 °F 100% 29.57 in 1.8 mi Calm Calm - N/A   Overcast
3:37 AM 51.8 °F - 51.8 °F 100% 29.57 in 0.8 mi Calm Calm - N/A   Mist
3:53 AM 50.0 °F - 50.0 °F 100% 29.57 in 0.5 mi East 3.5 mph - N/A Fog Fog
4:53 AM 51.1 °F - 51.1 °F 100% 29.54 in 0.8 mi ENE 4.6 mph - 0.01 in Rain Rain
5:00 AM 51.8 °F - 51.8 °F 100% 29.55 in 1.0 mi Calm Calm - 0.03 in Rain Rain
5:16 AM 51.8 °F - 51.8 °F 100% 29.54 in 2.0 mi NE 4.6 mph - 0.08 in Rain Heavy Rain
5:29 AM 50.0 °F - 50.0 °F 100% 29.54 in 3.0 mi North 8.1 mph - 0.14 in Rain Heavy Rain
5:46 AM 46.4 °F 41.5 °F 46.4 °F 100% 29.53 in 5.0 mi NNE 10.4 mph - 0.19 in Rain Rain
5:53 AM 46.9 °F - 46.0 °F 97% 29.52 in 5.0 mi NE 9.2 mph - 0.21 in Rain Rain
6:27 AM 44.6 °F 39.2 °F 44.6 °F 100% 29.53 in 10.0 mi NNE 10.4 mph - 0.04 in Rain Light Rain
6:49 AM 44.6 °F 39.2 °F 44.6 °F 100% 29.52 in 9.0 mi NE 10.4 mph - 0.05 in Rain Light Rain
6:53 AM 45.0 °F 40.1 °F 45.0 °F 100% 29.53 in 10.0 mi NNE 9.2 mph - 0.05 in Rain Light Rain
7:07 AM 44.6 °F 38.8 °F 44.6 °F 100% 29.53 in 10.0 mi NNE 11.5 mph - 0.00 in   Overcast
7:23 AM 44.6 °F 39.2 °F 44.6 °F 100% 29.53 in 1.8 mi NNE 10.4 mph - 0.00 in   Overcast
7:53 AM 44.1 °F 37.4 °F 44.1 °F 100% 29.53 in 1.5 mi NNE 13.8 mph - 0.00 in   Overcast
8:02 AM 44.6 °F 38.4 °F 44.6 °F 100% 29.52 in 3.0 mi NNE 12.7 mph - N/A   Overcast
8:16 AM 44.6 °F 38.1 °F 44.6 °F 100% 29.52 in 1.8 mi NNE 13.8 mph - N/A   Overcast
8:23 AM 44.6 °F 37.8 °F 44.6 °F 100% 29.52 in 1.2 mi NNE 15.0 mph - N/A   Overcast
8:25 AM 44.6 °F 37.4 °F 44.6 °F 100% 29.52 in 1.0 mi NNE 16.1 mph - N/A   Overcast
8:53 AM 44.1 °F 36.5 °F 44.1 °F 100% 29.52 in 1.2 mi NNE 17.3 mph 24.2 mph N/A   Overcast
9:15 AM 46.4 °F 40.7 °F 44.6 °F 93% 29.51 in 2.5 mi NNE 12.7 mph - N/A   Overcast
9:28 AM 46.4 °F 39.8 °F 44.6 °F 93% 29.51 in 1.2 mi NNE 16.1 mph - N/A   Overcast
9:53 AM 46.0 °F 39.6 °F 45.0 °F 96% 29.51 in 1.8 mi NNE 15.0 mph - N/A   Overcast
10:15 AM 46.4 °F 39.8 °F 44.6 °F 93% 29.51 in 2.0 mi NNE 16.1 mph 27.6 mph N/A   Overcast
10:27 AM 46.4 °F 39.8 °F 46.4 °F 100% 29.51 in 4.0 mi NNE 16.1 mph - N/A   Overcast
10:53 AM 46.0 °F 38.8 °F 45.0 °F 96% 29.52 in 4.0 mi NNE 18.4 mph - N/A   Overcast
11:53 AM 46.9 °F - 45.0 °F 93% 29.51 in 4.0 mi NNE 17.3 mph 26.5 mph N/A   Overcast
12:34 PM 46.4 °F 39.8 °F 46.4 °F 100% 29.50 in 2.0 mi NNE 16.1 mph 25.3 mph N/A   Overcast
12:53 PM 46.9 °F - 46.0 °F 97% 29.50 in 3.0 mi NNE 16.1 mph - N/A   Overcast
1:53 PM 46.9 °F - 45.0 °F 93% 29.49 in 2.5 mi NNE 17.3 mph 29.9 mph N/A   Overcast
2:02 PM 46.4 °F 39.2 °F 44.6 °F 93% 29.48 in 3.0 mi NNE 18.4 mph 28.8 mph N/A   Overcast
2:18 PM 46.4 °F 39.5 °F 44.6 °F 93% 29.48 in 5.0 mi NNE 17.3 mph 31.1 mph N/A   Overcast
2:32 PM 46.4 °F 38.5 °F 44.6 °F 93% 29.48 in 5.0 mi NNE 21.9 mph 31.1 mph N/A   Overcast
2:53 PM 46.0 °F 37.8 °F 44.1 °F 93% 29.48 in 7.0 mi NNE 23.0 mph 32.2 mph N/A   Overcast
2:58 PM 46.4 °F 39.2 °F 44.6 °F 93% 29.47 in 3.0 mi NNE 18.4 mph 32.2 mph N/A   Overcast
3:53 PM 44.1 °F 35.0 °F 42.1 °F 93% 29.47 in 3.0 mi NNE 24.2 mph 34.5 mph N/A   Overcast
4:53 PM 43.0 °F 34.2 °F 41.0 °F 93% 29.47 in 2.5 mi NNE 20.7 mph 29.9 mph N/A   Overcast
5:12 PM 42.8 °F 34.5 °F 41.0 °F 93% 29.46 in 3.0 mi NNE 18.4 mph 29.9 mph N/A   Overcast
5:24 PM 42.8 °F 34.3 °F 41.0 °F 93% 29.47 in 3.0 mi NNE 19.6 mph 28.8 mph N/A Thunderstorm Overcast
5:42 PM 42.8 °F 33.5 °F 41.0 °F 93% 29.48 in 3.0 mi NNE 23.0 mph 29.9 mph 0.00 in   Overcast
5:53 PM 42.1 °F 33.3 °F 41.0 °F 96% 29.50 in 3.0 mi NNE 19.6 mph 32.2 mph 0.00 in   Overcast
6:25 PM 42.8 °F 34.8 °F 39.2 °F 87% 29.51 in 2.5 mi NNE 17.3 mph 26.5 mph 0.00 in Rain Light Rain
6:33 PM 42.8 °F 34.3 °F 39.2 °F 87% 29.52 in 3.0 mi NNE 19.6 mph 27.6 mph 0.00 in   Overcast
6:53 PM 41.0 °F 32.5 °F 39.9 °F 96% 29.52 in 3.0 mi NNE 17.3 mph 26.5 mph 0.00 in   Overcast
7:53 PM 41.0 °F 32.5 °F 39.0 °F 93% 29.56 in 3.0 mi North 17.3 mph 24.2 mph 0.00 in Rain Light Rain
8:53 PM 39.9 °F 31.4 °F 39.0 °F 97% 29.59 in 3.0 mi NNE 16.1 mph 23.0 mph 0.00 in   Overcast
9:53 PM 39.9 °F 31.4 °F 39.0 °F 97% 29.60 in 3.0 mi NNE 16.1 mph 23.0 mph N/A   Overcast
10:53 PM 39.9 °F 32.1 °F 39.0 °F 97% 29.62 in 3.0 mi NNE 13.8 mph 24.2 mph N/A   Overcast
11:53 PM 39.0 °F 30.6 °F 37.9 °F 96% 29.64 in 3.0 mi NNE 15.0 mph 20.7 mph N/A   Overcast